Airfield :
LOGIN :

Register | Disclaimer

   EN    FR    IT 

 










Legend :    VFR   Marginal VFR   IFR   Intensive IFR   Very Intensive IFR
Visi :
Ceiling :
>= 8 km
>= 3000ft
5 to 8 km
1000 to 3000 ft
1500m to 5 km
500 to 1000 ft
800 to 1500m
200 to 500 ft
< 800m
< 200 ft
Symbols :   Thunderstorms  Fog  Heavy snow  Heavy precipitations  Wind > 20 kt
SIGMETs :     Misc.  Thunderstorms  Icing  Turbulence  Mountain Waves  Volcanic Ashes







- Airport Elevation : 13 ft
- IATA code : GOA


LIMJ - Genoa Cristoforo Colombo

CURRENT METAR :
  • 211650Z 15003KT 120V210 9999 FEW020 SCT070 25/21 Q1009

EXPIRED METARs :
  • 211620Z VRB02KT 9999 FEW020 SCT070 25/21 Q1009
  • 211550Z VRB02KT 9999 FEW020 SCT070 25/20 Q1010
  • 211520Z 20003KT 140V240 9999 FEW027 SCT070 26/21 Q1010
  • 211450Z 21004KT 170V250 9999 FEW027 26/20 Q1010
  • 211420Z 20004KT 170V250 9999 FEW027 27/20 Q1010

TAF TAF LIMJ
Valid from the 21 at 12:00 until the 22 at 12:00 UTC


211100Z 2112/2212 16007KT 9999 BKN030
TEMPO 2116/2212 TSRA
No reported NOTAMs for that airfield.
1 SIGMET reported for the Milano FIR (LIMM) :
 
Embedded thunderstorms
LIMM SIGMET 8 VALID 211400/211800 LIIP
LIMM MILANO FIR EMBD TS OBS ENTIRE FIR TOP ABV FL400 STNR NC=



MET'MAP, your aeronautical weather chart ! - Copyright ORBIFLY December 2007 - Disclaimer

ORBIFLY MET'MAP TEAM :

Programming & Development : Alexandra Zaïnal
Concept & Development : Baudouin d'Aumeries
Co-Development & Prog : Marc-Olivier Méhu
Technical & hardware support : Manuel Goepfert

Contact : metmap@orbifly.com




SOURCES & CREDITS :

   NOAA